Time;durP1;ratioP1;P1;durP2;ratioP2;P2;SDS_P1;SDS_P2;PMS_P1;PMS_P2;Temp;Humidity;BMP_temperature;BMP_pressure;BME280_temperature;BME280_humidity;BME280_pressure;Samples;Min_cycle;Max_cycle;Signal;HPM_P1;HPM_P2
2023/08/25 00:00:14;;;;;;;11.55;8.77;;;21.30;99.90;;;;;;5110422;28;20790;-80
2023/08/25 00:02:41;;;;;;;12.35;8.23;;;20.90;99.90;;;;;;5113414;27;20243;-79
2023/08/25 00:05:09;;;;;;;12.88;9.27;;;20.80;99.90;;;;;;5110479;28;20207;-81
2023/08/25 00:07:36;;;;;;;13.30;9.90;;;20.80;99.90;;;;;;5110511;28;20617;-79
2023/08/25 00:10:03;;;;;;;14.30;10.25;;;20.70;99.90;;;;;;5110260;28;20206;-79
2023/08/25 00:12:30;;;;;;;15.23;10.20;;;20.00;99.90;;;;;;5111713;27;20207;-80
2023/08/25 00:14:56;;;;;;;16.33;11.07;;;20.30;99.90;;;;;;5110501;28;20626;-79
2023/08/25 00:17:23;;;;;;;16.23;11.07;;;21.10;99.90;;;;;;5110406;28;20223;-80
2023/08/25 00:19:51;;;;;;;16.60;11.02;;;21.30;99.90;;;;;;5091751;28;20290;-80
2023/08/25 00:22:18;;;;;;;16.67;11.27;;;20.20;99.90;;;;;;5118524;27;20205;-81
2023/08/25 00:24:45;;;;;;;21.15;12.68;;;20.30;99.90;;;;;;5110144;28;20293;-81
2023/08/25 00:27:12;;;;;;;17.27;11.73;;;20.50;99.90;;;;;;5091658;28;20207;-80
2023/08/25 00:29:39;;;;;;;18.58;12.35;;;20.40;99.90;;;;;;5110310;28;20215;-80
2023/08/25 00:32:05;;;;;;;20.55;13.30;;;20.50;99.90;;;;;;5118326;27;20202;-79
2023/08/25 00:34:32;;;;;;;18.58;13.05;;;20.50;99.90;;;;;;5109871;28;20206;-79
2023/08/25 00:37:00;;;;;;;20.73;13.10;;;20.50;99.90;;;;;;5109987;28;20206;-80
2023/08/25 00:39:31;;;;;;;19.45;12.98;;;20.90;99.90;;;;;;5109932;28;20280;-80
2023/08/25 00:41:58;;;;;;;18.25;12.52;;;20.50;99.90;;;;;;5117779;27;20225;-81
2023/08/25 00:44:25;;;;;;;21.67;13.68;;;20.40;99.90;;;;;;5109876;28;20280;-80
2023/08/25 00:46:52;;;;;;;19.52;13.82;;;20.40;99.90;;;;;;5091784;28;20306;-81
2023/08/25 00:49:21;;;;;;;23.98;14.57;;;21.10;99.90;;;;;;5100295;27;20202;-81
2023/08/25 00:51:49;;;;;;;26.00;15.15;;;20.40;99.90;;;;;;5120541;27;20238;-80
2023/08/25 00:54:18;;;;;;;23.00;14.75;;;20.30;99.90;;;;;;5110337;28;20218;-80
2023/08/25 00:56:47;;;;;;;27.45;15.15;;;20.60;99.90;;;;;;5091865;28;20263;-80
2023/08/25 00:59:17;;;;;;;27.23;16.13;;;20.90;99.90;;;;;;5109389;27;20716;-80
2023/08/25 01:01:47;;;;;;;25.55;14.80;;;20.30;99.90;;;;;;5109919;28;20219;-81
2023/08/25 01:04:14;;;;;;;29.98;16.77;;;21.20;99.90;;;;;;5113207;28;20258;-80
2023/08/25 01:06:41;;;;;;;30.08;17.42;;;20.30;99.90;;;;;;5109333;28;20706;-78
2023/08/25 01:09:10;;;;;;;29.98;17.98;;;20.40;99.90;;;;;;5117069;28;20533;-78
2023/08/25 01:12:09;;;;;;;33.03;18.52;;;20.30;99.90;;;;;;5098351;28;20202;-79
2023/08/25 01:14:46;;;;;;;34.15;19.38;;;20.20;99.90;;;;;;5109940;28;20590;-79
2023/08/25 01:17:17;;;;;;;34.80;18.65;;;19.80;99.90;;;;;;5103476;28;20225;-79
2023/08/25 01:19:55;;;;;;;32.05;17.83;;;20.20;99.90;;;;;;5113588;28;20255;-80
2023/08/25 01:22:44;;;;;;;31.08;18.25;;;20.20;99.90;;;;;;5122724;27;20225;-81
2023/08/25 01:25:30;;;;;;;33.42;18.98;;;20.30;99.90;;;;;;5110301;28;20244;-80
2023/08/25 01:27:59;;;;;;;35.60;18.95;;;20.20;99.90;;;;;;5119397;27;20199;-78
2023/08/25 01:30:27;;;;;;;34.28;18.67;;;20.20;99.90;;;;;;5113467;27;20273;-80
2023/08/25 01:32:57;;;;;;;34.35;19.92;;;20.10;99.90;;;;;;5117446;27;20209;-79
2023/08/25 01:35:31;;;;;;;30.35;17.58;;;20.40;99.90;;;;;;5119607;27;20203;-80
2023/08/25 01:38:08;;;;;;;33.67;19.20;;;20.20;99.90;;;;;;5102057;28;20206;-80
2023/08/25 01:40:43;;;;;;;35.13;19.48;;;20.20;99.90;;;;;;5113348;28;20190;-82
2023/08/25 01:43:15;;;;;;;35.08;19.15;;;20.20;99.90;;;;;;5104648;28;20219;-81
2023/08/25 01:45:42;;;;;;;34.20;18.75;;;20.20;99.90;;;;;;5113418;28;20694;-81
2023/08/25 01:48:11;;;;;;;34.03;18.58;;;20.20;99.90;;;;;;5113326;28;20211;-79
2023/08/25 01:50:38;;;;;;;33.17;19.60;;;20.40;99.90;;;;;;5113334;28;20203;-79
2023/08/25 01:53:06;;;;;;;40.25;20.33;;;20.40;99.90;;;;;;5118904;27;20259;-81
2023/08/25 01:55:33;;;;;;;44.05;21.30;;;20.30;99.90;;;;;;5113203;28;20248;-79
2023/08/25 01:58:01;;;;;;;39.63;20.45;;;20.20;99.90;;;;;;5113917;27;20203;-80
2023/08/25 02:00:28;;;;;;;43.80;22.02;;;20.30;99.90;;;;;;5112647;28;20702;-78
2023/08/25 02:02:55;;;;;;;47.28;22.42;;;20.30;99.90;;;;;;5114293;27;20215;-79
2023/08/25 02:05:22;;;;;;;42.97;21.30;;;20.30;99.90;;;;;;5118684;27;20202;-80
2023/08/25 02:07:49;;;;;;;43.45;21.63;;;20.40;99.90;;;;;;5119345;27;20203;-79
2023/08/25 02:10:17;;;;;;;41.67;21.48;;;20.60;99.90;;;;;;5113137;28;20211;-80
2023/08/25 02:12:43;;;;;;;42.53;23.23;;;21.00;99.90;;;;;;5113748;27;20290;-79
2023/08/25 02:15:10;;;;;;;40.53;22.20;;;20.30;99.90;;;;;;5112950;28;20203;-79
2023/08/25 02:17:37;;;;;;;45.78;22.95;;;20.30;99.90;;;;;;5112874;28;20211;-80
2023/08/25 02:20:04;;;;;;;45.80;22.90;;;20.20;99.90;;;;;;5112772;28;20207;-81
2023/08/25 02:22:31;;;;;;;46.92;24.05;;;20.20;99.90;;;;;;5094834;28;20199;-80
2023/08/25 02:24:58;;;;;;;42.15;23.15;;;20.50;99.90;;;;;;5107730;28;20242;-80
2023/08/25 02:27:24;;;;;;;43.33;23.05;;;20.50;99.90;;;;;;5118097;27;20611;-80
2023/08/25 02:29:52;;;;;;;48.38;24.05;;;20.20;99.90;;;;;;5112996;27;20219;-79
2023/08/25 02:32:19;;;;;;;48.30;23.25;;;20.10;99.90;;;;;;5119387;27;20358;-80
2023/08/25 02:34:46;;;;;;;50.05;23.90;;;20.30;99.90;;;;;;5094254;28;20201;-81
2023/08/25 02:37:13;;;;;;;51.90;23.55;;;20.20;99.90;;;;;;5112272;28;20214;-80
2023/08/25 02:39:39;;;;;;;50.53;24.73;;;21.00;99.90;;;;;;5114803;27;20259;-79
2023/08/25 02:42:06;;;;;;;43.15;22.30;;;20.40;99.90;;;;;;5123526;27;20257;-80
2023/08/25 02:44:33;;;;;;;45.25;23.23;;;20.40;99.90;;;;;;5112051;27;20222;-80
2023/08/25 02:47:00;;;;;;;44.67;22.38;;;20.80;99.90;;;;;;5094343;28;20240;-80
2023/08/25 02:49:27;;;;;;;41.13;20.98;;;20.60;99.90;;;;;;5112158;28;20207;-79
2023/08/25 02:51:56;;;;;;;41.30;21.73;;;20.90;99.90;;;;;;5112424;28;20195;-81
2023/08/25 02:54:23;;;;;;;41.97;21.33;;;20.70;99.90;;;;;;5094990;28;20256;-79
2023/08/25 02:56:50;;;;;;;33.95;18.98;;;20.40;99.90;;;;;;5112619;27;20196;-80
2023/08/25 02:59:17;;;;;;;39.47;20.48;;;21.10;99.90;;;;;;5111344;28;20711;-79
2023/08/25 03:01:43;;;;;;;39.83;21.40;;;20.70;99.90;;;;;;5112155;28;20219;-80
2023/08/25 03:04:10;;;;;;;38.88;20.13;;;20.80;99.90;;;;;;5094269;28;20227;-80
2023/08/25 03:06:37;;;;;;;36.22;19.85;;;20.30;99.90;;;;;;5112072;28;20192;-78
2023/08/25 03:09:04;;;;;;;46.30;20.88;;;21.00;99.90;;;;;;5112026;28;20203;-81
2023/08/25 03:11:31;;;;;;;35.78;19.80;;;20.40;99.90;;;;;;5111676;28;20239;-81
2023/08/25 03:13:58;;;;;;;36.08;20.02;;;20.80;99.90;;;;;;5093784;28;20222;-80
2023/08/25 03:16:25;;;;;;;36.33;19.42;;;20.90;99.90;;;;;;5111453;28;20215;-79
2023/08/25 03:18:52;;;;;;;36.17;19.20;;;20.90;99.90;;;;;;5112521;28;20211;-79
2023/08/25 03:21:19;;;;;;;39.05;20.13;;;21.50;99.90;;;;;;5111282;28;20203;-80
2023/08/25 03:23:46;;;;;;;44.58;22.67;;;20.80;99.90;;;;;;5112226;28;20226;-81
2023/08/25 03:26:13;;;;;;;42.65;22.63;;;21.60;99.90;;;;;;5111692;28;20204;-80
2023/08/25 03:28:39;;;;;;;42.30;23.30;;;20.90;99.90;;;;;;5112215;28;20202;-80
2023/08/25 03:31:06;;;;;;;47.22;23.52;;;20.80;99.90;;;;;;5111663;28;20226;-81
2023/08/25 03:33:33;;;;;;;45.25;22.38;;;21.50;99.90;;;;;;5111098;28;20237;-82
2023/08/25 03:36:00;;;;;;;47.40;24.48;;;21.00;99.90;;;;;;5093033;28;20230;-79
2023/08/25 03:38:27;;;;;;;49.47;23.30;;;20.90;99.90;;;;;;5110718;28;20207;-80
2023/08/25 03:40:58;;;;;;;56.08;25.65;;;20.40;99.90;;;;;;5090048;28;20196;-80
2023/08/25 03:43:25;;;;;;;51.25;24.95;;;20.80;99.90;;;;;;5111394;28;20710;-81
2023/08/25 03:45:52;;;;;;;55.47;25.95;;;21.40;99.90;;;;;;5092829;28;20207;-81
2023/08/25 03:48:19;;;;;;;54.22;25.02;;;20.40;99.90;;;;;;5110998;28;20572;-79
2023/08/25 03:50:47;;;;;;;55.53;25.55;;;21.30;99.90;;;;;;5110767;28;20199;-80
2023/08/25 03:53:14;;;;;;;51.05;25.55;;;21.50;99.90;;;;;;5107852;28;20199;-80
2023/08/25 03:55:41;;;;;;;56.72;25.42;;;21.10;99.90;;;;;;5111133;28;20207;-80
2023/08/25 03:58:08;;;;;;;54.80;25.30;;;20.90;99.90;;;;;;5092774;28;20260;-80
2023/08/25 04:00:35;;;;;;;56.15;25.70;;;21.30;99.90;;;;;;5110281;28;20239;-81
2023/08/25 04:03:03;;;;;;;50.10;24.38;;;21.00;99.90;;;;;;5111060;28;20282;-81
2023/08/25 04:05:30;;;;;;;54.50;24.38;;;20.90;99.90;;;;;;5110829;28;20328;-80
2023/08/25 04:07:58;;;;;;;55.55;26.73;;;20.90;99.90;;;;;;5093081;28;20267;-80
2023/08/25 04:10:26;;;;;;;58.08;23.77;;;21.90;99.90;;;;;;5095382;28;20203;-80
2023/08/25 04:12:52;;;;;;;51.80;24.90;;;21.90;99.90;;;;;;5111126;28;20241;-80
2023/08/25 04:15:22;;;;;;;50.15;25.52;;;21.00;99.90;;;;;;5105427;28;20249;-80
2023/08/25 04:17:49;;;;;;;49.60;23.27;;;20.90;99.90;;;;;;5088401;28;20199;-81
2023/08/25 04:20:17;;;;;;;52.70;24.77;;;21.10;99.90;;;;;;5111511;27;20625;-80
2023/08/25 04:22:44;;;;;;;50.80;23.90;;;20.90;99.90;;;;;;5111857;27;20195;-80
2023/08/25 04:25:10;;;;;;;50.35;24.00;;;20.80;99.90;;;;;;5093561;28;20223;-81
2023/08/25 04:27:37;;;;;;;51.75;24.98;;;20.90;99.90;;;;;;5112105;28;20191;-80
2023/08/25 04:30:05;;;;;;;51.47;24.65;;;21.00;99.90;;;;;;5113357;28;20245;-79
2023/08/25 04:32:31;;;;;;;54.22;24.80;;;20.90;99.90;;;;;;5113011;28;20340;-79
2023/08/25 04:34:58;;;;;;;51.50;23.73;;;21.20;99.90;;;;;;5113093;28;20266;-80
2023/08/25 04:37:25;;;;;;;50.53;24.00;;;20.90;99.90;;;;;;5093325;28;20234;-79
2023/08/25 04:39:54;;;;;;;45.53;22.42;;;20.70;99.90;;;;;;5112488;28;20218;-78
2023/08/25 04:42:22;;;;;;;44.15;22.90;;;20.90;99.90;;;;;;5100903;28;20199;-80
2023/08/25 04:44:49;;;;;;;46.42;22.10;;;21.00;99.90;;;;;;5111863;28;20267;-80
2023/08/25 04:47:16;;;;;;;45.03;21.65;;;21.70;99.90;;;;;;5112556;27;20211;-80
2023/08/25 04:49:43;;;;;;;44.65;22.02;;;21.80;99.90;;;;;;5129718;27;20318;-80
2023/08/25 04:52:09;;;;;;;41.85;20.83;;;20.90;99.90;;;;;;5113228;28;20736;-79
2023/08/25 04:54:37;;;;;;;44.63;21.33;;;21.00;99.90;;;;;;5115203;27;20222;-79
2023/08/25 04:57:03;;;;;;;38.78;21.40;;;20.80;99.90;;;;;;5112248;28;20210;-79
2023/08/25 04:59:30;;;;;;;41.10;21.75;;;21.00;99.90;;;;;;5085907;28;20738;-78
2023/08/25 05:01:57;;;;;;;40.72;21.27;;;20.70;99.90;;;;;;5116634;27;20219;-80
2023/08/25 05:04:24;;;;;;;36.22;19.83;;;21.70;99.90;;;;;;5118308;27;20226;-79
2023/08/25 05:06:50;;;;;;;39.75;21.58;;;21.50;99.90;;;;;;5113912;28;20671;-79
2023/08/25 05:09:17;;;;;;;36.53;18.60;;;20.60;99.90;;;;;;5114678;28;20206;-81
2023/08/25 05:11:44;;;;;;;36.90;20.67;;;20.90;99.90;;;;;;5091425;28;20207;-80
2023/08/25 05:14:12;;;;;;;37.90;19.85;;;21.00;99.90;;;;;;5112132;28;20199;-79
2023/08/25 05:16:39;;;;;;;33.78;19.17;;;20.70;99.90;;;;;;5100695;28;20219;-80
2023/08/25 05:19:08;;;;;;;39.13;20.20;;;21.80;99.90;;;;;;5115426;28;20659;-80
2023/08/25 05:21:35;;;;;;;35.83;19.88;;;21.00;99.90;;;;;;5121175;28;20598;-80
2023/08/25 05:24:23;;;;;;;42.20;21.13;;;21.50;99.90;;;;;;5101367;28;20717;-80
2023/08/25 05:26:53;;;;;;;37.25;19.65;;;21.20;99.90;;;;;;5113538;28;20211;-81
2023/08/25 05:29:23;;;;;;;39.55;20.48;;;21.00;99.90;;;;;;5112497;28;20211;-80
2023/08/25 05:31:50;;;;;;;37.10;20.67;;;20.80;99.90;;;;;;5108862;28;20219;-80
2023/08/25 05:34:17;;;;;;;42.17;20.73;;;21.10;99.90;;;;;;5102446;28;20572;-79
2023/08/25 05:36:44;;;;;;;39.47;20.27;;;20.90;99.90;;;;;;5114429;28;20210;-81
2023/08/25 05:39:12;;;;;;;38.40;20.55;;;21.00;99.90;;;;;;5124924;28;20303;-80
2023/08/25 05:41:39;;;;;;;41.40;20.45;;;21.30;99.90;;;;;;5101756;28;20252;-79
2023/08/25 05:44:05;;;;;;;40.33;19.80;;;21.30;99.90;;;;;;5122917;28;20291;-80
2023/08/25 05:46:32;;;;;;;41.78;21.42;;;21.70;99.90;;;;;;5117449;28;20222;-79
2023/08/25 05:48:59;;;;;;;39.65;20.80;;;21.70;99.90;;;;;;5108951;28;20671;-80
2023/08/25 05:51:26;;;;;;;40.35;20.33;;;22.00;99.90;;;;;;5125083;28;20207;-80
2023/08/25 05:53:53;;;;;;;39.33;19.70;;;21.90;99.90;;;;;;5104776;28;20203;-80
2023/08/25 05:56:20;;;;;;;39.88;21.02;;;21.40;99.90;;;;;;5109448;28;20252;-81
2023/08/25 05:58:46;;;;;;;43.47;21.20;;;21.60;99.90;;;;;;5111582;28;20288;-80
2023/08/25 06:01:13;;;;;;;38.20;20.90;;;21.80;99.90;;;;;;5108156;27;20283;-80
2023/08/25 06:03:43;;;;;;;38.30;20.45;;;21.70;99.90;;;;;;5104410;27;20722;-81
2023/08/25 06:06:10;;;;;;;38.00;20.73;;;21.80;99.90;;;;;;5119056;27;20191;-81
2023/08/25 06:08:37;;;;;;;39.78;20.45;;;21.60;99.90;;;;;;5103270;27;20651;-79
2023/08/25 06:11:04;;;;;;;36.53;20.48;;;21.60;99.90;;;;;;5083119;28;20880;-80
2023/08/25 06:13:31;;;;;;;35.20;19.10;;;21.50;99.90;;;;;;5125207;27;20234;-81
2023/08/25 06:15:57;;;;;;;34.00;19.58;;;21.90;99.90;;;;;;5101064;28;20219;-79
2023/08/25 06:18:24;;;;;;;40.67;21.55;;;21.70;99.90;;;;;;5094627;27;20215;-80
2023/08/25 06:20:54;;;;;;;39.80;21.30;;;21.70;99.90;;;;;;5083616;28;20291;-80
2023/08/25 06:23:21;;;;;;;40.55;21.25;;;21.90;99.90;;;;;;5093254;28;20211;-81
2023/08/25 06:25:48;;;;;;;35.30;21.48;;;22.10;99.90;;;;;;5096433;27;20234;-80
2023/08/25 06:28:16;;;;;;;35.10;19.77;;;22.20;99.90;;;;;;5106328;27;20199;-80
2023/08/25 06:30:42;;;;;;;35.38;19.45;;;22.60;99.90;;;;;;5104951;27;20235;-80
2023/08/25 06:33:10;;;;;;;36.42;21.13;;;22.50;99.90;;;;;;5109960;27;20717;-80
2023/08/25 06:35:40;;;;;;;38.10;20.17;;;23.30;99.90;;;;;;5114829;27;20240;-81
2023/08/25 06:38:08;;;;;;;33.80;18.63;;;22.80;99.90;;;;;;5108125;28;20192;-80
2023/08/25 06:40:36;;;;;;;33.63;18.20;;;23.00;99.90;;;;;;5112184;27;20542;-82
2023/08/25 06:43:03;;;;;;;37.10;20.73;;;22.50;99.90;;;;;;5104387;28;20216;-80
2023/08/25 06:45:30;;;;;;;33.03;19.52;;;22.90;99.90;;;;;;5107546;27;21429;-83
2023/08/25 06:47:58;;;;;;;38.00;21.48;;;22.70;99.90;;;;;;5110514;28;20298;-82
2023/08/25 06:50:25;;;;;;;32.33;20.13;;;23.10;99.90;;;;;;5114038;27;20247;-81
2023/08/25 06:52:52;;;;;;;36.03;20.40;;;23.10;99.90;;;;;;5093527;28;20282;-79
2023/08/25 06:55:19;;;;;;;35.50;21.17;;;22.80;99.90;;;;;;5117060;27;20195;-83
2023/08/25 06:57:47;;;;;;;38.75;20.65;;;22.90;99.90;;;;;;5100990;28;20233;-81
2023/08/25 07:00:16;;;;;;;36.08;20.23;;;23.30;99.90;;;;;;5112982;27;20249;-80
2023/08/25 07:02:44;;;;;;;34.83;19.52;;;22.70;99.90;;;;;;5110614;27;20557;-84
2023/08/25 07:05:13;;;;;;;40.42;21.40;;;22.60;99.90;;;;;;5111105;27;20703;-81
2023/08/25 07:07:40;;;;;;;36.05;20.75;;;22.60;99.90;;;;;;5094845;28;20381;-83
2023/08/25 07:10:07;;;;;;;36.83;20.02;;;22.80;99.90;;;;;;5111119;28;20199;-81
2023/08/25 07:12:35;;;;;;;37.72;20.20;;;22.40;99.90;;;;;;5107738;27;20199;-82
2023/08/25 07:15:05;;;;;;;34.03;19.38;;;22.80;99.90;;;;;;5109078;28;20279;-81
2023/08/25 07:17:32;;;;;;;35.72;20.13;;;22.40;99.90;;;;;;5108310;28;20226;-82
2023/08/25 07:19:59;;;;;;;35.22;18.92;;;22.30;99.90;;;;;;5111167;27;20203;-81
2023/08/25 07:22:26;;;;;;;38.95;21.27;;;22.30;99.90;;;;;;5083880;27;20290;-82
2023/08/25 07:24:53;;;;;;;34.17;19.10;;;22.50;99.90;;;;;;5109082;28;20230;-81
2023/08/25 07:27:20;;;;;;;38.05;20.17;;;22.40;99.90;;;;;;5098110;27;20619;-82
2023/08/25 07:29:47;;;;;;;35.88;19.73;;;23.10;99.90;;;;;;5112556;27;20207;-81
2023/08/25 07:32:14;;;;;;;32.28;19.40;;;23.20;99.90;;;;;;5115644;27;20203;-82
2023/08/25 07:34:47;;;;;;;36.40;19.52;;;23.00;99.90;;;;;;5091839;28;20192;-81
2023/08/25 07:37:14;;;;;;;34.85;19.63;;;22.30;99.90;;;;;;5109205;27;20716;-81
2023/08/25 07:39:41;;;;;;;33.90;20.30;;;22.30;99.90;;;;;;5088615;28;20269;-82
2023/08/25 07:42:08;;;;;;;33.47;19.27;;;22.20;99.90;;;;;;5102679;28;20612;-81
2023/08/25 07:44:38;;;;;;;40.53;20.65;;;22.20;99.90;;;;;;5106547;28;20223;-83
2023/08/25 07:47:05;;;;;;;36.20;21.52;;;22.40;99.90;;;;;;5105951;28;20679;-81
2023/08/25 07:49:32;;;;;;;32.85;20.25;;;22.20;99.90;;;;;;5091570;28;20242;-81
2023/08/25 07:51:58;;;;;;;35.10;20.85;;;22.30;99.90;;;;;;5108645;28;20229;-81
2023/08/25 07:54:27;;;;;;;34.55;19.63;;;22.30;99.90;;;;;;5091546;28;20207;-80
2023/08/25 07:56:54;;;;;;;37.03;21.05;;;22.20;99.90;;;;;;5106873;27;20465;-81
2023/08/25 07:59:22;;;;;;;33.65;19.13;;;22.10;99.90;;;;;;5102715;28;20203;-83
2023/08/25 08:01:50;;;;;;;38.08;19.65;;;22.20;99.90;;;;;;5102170;28;20233;-80
2023/08/25 08:04:17;;;;;;;36.33;20.88;;;22.10;99.90;;;;;;5108957;28;20199;-80
2023/08/25 08:06:44;;;;;;;33.63;19.98;;;23.20;99.90;;;;;;5109222;28;20272;-81
2023/08/25 08:09:11;;;;;;;31.58;18.50;;;22.10;99.90;;;;;;5098370;28;20195;-81
2023/08/25 08:11:38;;;;;;;33.55;20.30;;;22.30;99.90;;;;;;5101098;28;20222;-80
2023/08/25 08:14:05;;;;;;;36.85;21.50;;;22.70;99.90;;;;;;5096224;27;20195;-81
2023/08/25 08:16:32;;;;;;;32.45;19.55;;;22.40;99.90;;;;;;5105892;27;20230;-80
2023/08/25 08:19:05;;;;;;;31.48;19.75;;;22.70;99.90;;;;;;5114963;27;20190;-80
2023/08/25 08:21:32;;;;;;;35.33;21.25;;;22.50;99.90;;;;;;5110934;27;20659;-79
2023/08/25 08:24:00;;;;;;;35.00;20.95;;;22.70;99.90;;;;;;5107349;27;20286;-82
2023/08/25 08:26:27;;;;;;;34.60;20.98;;;22.60;99.90;;;;;;5094734;27;20211;-82
2023/08/25 08:28:54;;;;;;;33.95;20.88;;;22.70;99.90;;;;;;5106692;28;20205;-79
2023/08/25 08:31:22;;;;;;;34.70;19.95;;;22.30;99.90;;;;;;5106273;28;20423;-81
2023/08/25 08:33:49;;;;;;;36.67;20.90;;;22.70;99.90;;;;;;5110531;27;20712;-80
2023/08/25 08:36:18;;;;;;;33.03;19.70;;;22.70;99.90;;;;;;5099267;28;20215;-79
2023/08/25 08:38:46;;;;;;;34.33;20.17;;;23.10;99.90;;;;;;5110169;27;20198;-80
2023/08/25 08:41:15;;;;;;;34.05;20.42;;;22.80;99.90;;;;;;5105902;27;20199;-81
2023/08/25 08:43:45;;;;;;;34.85;21.08;;;22.90;99.90;;;;;;5104604;28;20191;-82
2023/08/25 08:46:18;;;;;;;33.22;19.83;;;22.80;99.90;;;;;;5104243;27;20222;-80
2023/08/25 08:48:46;;;;;;;34.60;19.38;;;22.80;99.90;;;;;;5115904;27;20638;-81
2023/08/25 08:51:15;;;;;;;35.00;20.30;;;22.30;99.90;;;;;;5108088;27;20198;-80
2023/08/25 08:53:42;;;;;;;35.40;21.02;;;22.50;99.90;;;;;;5102265;28;20204;-81
2023/08/25 08:56:09;;;;;;;47.58;23.13;;;22.30;99.90;;;;;;5108440;28;20203;-74
2023/08/25 08:58:36;;;;;;;39.80;22.45;;;22.40;99.90;;;;;;5098042;28;20940;-76
2023/08/25 09:01:03;;;;;;;38.47;21.17;;;22.30;99.90;;;;;;5109805;27;20230;-76
2023/08/25 09:03:34;;;;;;;25.70;15.75;;;22.30;99.90;;;;;;5100240;28;20200;-76
2023/08/25 09:06:03;;;;;;;16.98;10.30;;;22.10;99.90;;;;;;5118101;27;20685;-75
2023/08/25 09:08:31;;;;;;;9.07;4.80;;;21.90;99.90;;;;;;5112587;27;20284;-78
2023/08/25 09:11:00;;;;;;;6.10;3.10;;;22.00;99.90;;;;;;5107424;28;20202;-77
2023/08/25 09:13:27;;;;;;;7.03;4.20;;;21.50;99.90;;;;;;5114248;28;20237;-77
2023/08/25 09:15:54;;;;;;;10.10;5.55;;;21.30;99.90;;;;;;5103875;28;20746;-80
2023/08/25 09:18:21;;;;;;;9.65;6.30;;;21.30;99.90;;;;;;5114247;28;20666;-78
2023/08/25 09:20:48;;;;;;;11.30;6.40;;;21.70;99.90;;;;;;5100863;28;20550;-81
2023/08/25 09:23:15;;;;;;;15.35;8.00;;;21.50;99.90;;;;;;5109223;28;20214;-78
2023/08/25 09:25:43;;;;;;;18.60;10.48;;;21.50;99.90;;;;;;5111162;28;20308;-80
2023/08/25 09:28:09;;;;;;;25.70;14.13;;;21.50;99.90;;;;;;5102540;28;20256;-79
2023/08/25 09:30:39;;;;;;;33.67;16.23;;;21.20;99.90;;;;;;5104301;28;20215;-78
2023/08/25 09:33:13;;;;;;;33.67;16.95;;;21.40;99.90;;;;;;5104483;28;20214;-77
2023/08/25 09:35:41;;;;;;;31.80;17.73;;;21.40;99.90;;;;;;5106944;27;20198;-78
2023/08/25 09:38:21;;;;;;;35.55;17.58;;;21.30;99.90;;;;;;5111615;27;20239;-80
2023/08/25 09:40:48;;;;;;;36.70;17.60;;;22.00;99.90;;;;;;5111832;27;20187;-78
2023/08/25 09:43:15;;;;;;;33.38;17.33;;;21.30;99.90;;;;;;5109894;27;20211;-78
2023/08/25 09:45:42;;;;;;;39.80;17.85;;;21.40;99.90;;;;;;5113372;27;20225;-78
2023/08/25 09:48:11;;;;;;;42.70;19.60;;;21.40;99.90;;;;;;5114358;27;20227;-78
2023/08/25 09:50:43;;;;;;;44.97;19.83;;;21.50;99.90;;;;;;5111611;28;20224;-80
2023/08/25 09:53:13;;;;;;;39.90;18.85;;;21.60;99.90;;;;;;5109248;27;20192;-77
2023/08/25 09:55:40;;;;;;;38.85;19.85;;;21.60;99.90;;;;;;5108484;28;20200;-79
2023/08/25 09:58:10;;;;;;;43.92;20.88;;;21.70;99.90;;;;;;5110514;28;20206;-80
2023/08/25 10:00:38;;;;;;;42.67;21.05;;;21.70;99.90;;;;;;5107681;27;20289;-79
2023/08/25 10:03:08;;;;;;;35.75;18.98;;;22.00;99.90;;;;;;5093572;28;20208;-80
2023/08/25 10:05:38;;;;;;;36.95;18.92;;;21.70;99.90;;;;;;5096100;28;20228;-78
2023/08/25 10:08:09;;;;;;;38.83;19.52;;;21.60;99.90;;;;;;5091576;28;20237;-79
2023/08/25 10:10:38;;;;;;;41.92;21.65;;;21.60;99.90;;;;;;5093090;28;20199;-79
2023/08/25 10:13:07;;;;;;;42.42;20.58;;;21.60;99.90;;;;;;5089758;28;20212;-79
2023/08/25 10:15:34;;;;;;;42.05;20.70;;;21.10;99.90;;;;;;5090230;28;20264;-80
2023/08/25 10:18:06;;;;;;;39.97;20.20;;;21.60;99.90;;;;;;5091071;28;20196;-81
2023/08/25 10:20:35;;;;;;;43.35;21.30;;;21.60;99.90;;;;;;5082926;28;20275;-79
2023/08/25 10:23:08;;;;;;;43.53;20.33;;;21.10;99.90;;;;;;5099064;28;20208;-79
2023/08/25 10:25:36;;;;;;;41.92;20.63;;;21.60;99.90;;;;;;5077141;28;20219;-80
2023/08/25 10:28:05;;;;;;;41.25;20.38;;;21.60;99.90;;;;;;5097524;28;20203;-79
2023/08/25 10:30:33;;;;;;;42.08;20.85;;;21.50;99.90;;;;;;5086283;28;20226;-78
2023/08/25 10:33:08;;;;;;;46.15;22.23;;;21.40;99.90;;;;;;5079673;28;20196;-77
2023/08/25 10:35:46;;;;;;;44.67;21.92;;;21.40;99.90;;;;;;5086239;28;20492;-79
2023/08/25 10:38:19;;;;;;;48.08;22.45;;;21.40;99.90;;;;;;5098295;28;20268;-78
2023/08/25 10:40:53;;;;;;;49.22;22.90;;;21.20;99.90;;;;;;5093315;28;20192;-77
2023/08/25 10:43:25;;;;;;;44.92;22.10;;;21.20;99.90;;;;;;5097830;28;20206;-77
2023/08/25 10:45:52;;;;;;;45.80;22.88;;;21.20;99.90;;;;;;5095921;28;20288;-76
2023/08/25 10:48:19;;;;;;;44.10;22.02;;;21.30;99.90;;;;;;5090955;28;20199;-79
2023/08/25 10:51:10;;;;;;;47.58;23.58;;;21.30;99.90;;;;;;5091646;28;20196;-80
2023/08/25 10:53:50;;;;;;;47.00;23.10;;;21.40;99.90;;;;;;5072921;28;20198;-79
2023/08/25 10:56:23;;;;;;;40.70;21.25;;;21.50;99.90;;;;;;5073998;28;20280;-82
2023/08/25 10:59:02;;;;;;;38.22;21.65;;;21.50;99.90;;;;;;5088470;28;20272;-80
2023/08/25 11:01:38;;;;;;;38.25;20.50;;;21.60;99.90;;;;;;5108880;27;20691;-81
2023/08/25 11:04:12;;;;;;;38.47;22.35;;;21.50;99.90;;;;;;5117407;27;20228;-81
2023/08/25 11:06:46;;;;;;;42.38;23.13;;;21.40;99.90;;;;;;5117136;27;20280;-80
2023/08/25 11:09:26;;;;;;;40.95;22.70;;;21.30;99.90;;;;;;5120777;27;20206;-81
2023/08/25 11:11:58;;;;;;;43.20;22.55;;;21.50;99.90;;;;;;5117944;27;20279;-79
2023/08/25 11:14:29;;;;;;;54.05;25.42;;;21.60;99.90;;;;;;5116871;27;20198;-82
2023/08/25 11:16:57;;;;;;;47.80;25.42;;;21.90;99.90;;;;;;5114915;27;20211;-80
2023/08/25 11:19:25;;;;;;;35.92;21.13;;;22.20;99.90;;;;;;5114741;27;20667;-80
2023/08/25 11:22:00;;;;;;;32.67;19.63;;;22.70;99.90;;;;;;5106099;28;20203;-80
2023/08/25 11:24:29;;;;;;;30.17;20.08;;;22.80;99.90;;;;;;5113249;27;20199;-81
2023/08/25 11:27:05;;;;;;;25.27;17.23;;;23.00;99.90;;;;;;5099052;27;20219;-80
2023/08/25 11:29:33;;;;;;;23.50;15.57;;;23.50;99.90;;;;;;5115131;27;20221;-78
2023/08/25 11:32:01;;;;;;;24.15;16.02;;;23.10;99.90;;;;;;5114594;27;20226;-81
2023/08/25 11:34:34;;;;;;;22.45;15.15;;;23.00;99.90;;;;;;5102370;27;20225;-79
2023/08/25 11:37:01;;;;;;;19.95;14.63;;;23.00;99.90;;;;;;5097063;27;20209;-82
2023/08/25 11:39:27;;;;;;;20.60;14.10;;;23.20;99.90;;;;;;5106825;27;20261;-81
2023/08/25 11:41:55;;;;;;;18.58;13.10;;;23.40;99.90;;;;;;5107704;27;20202;-83
2023/08/25 11:44:29;;;;;;;17.42;13.07;;;23.30;99.90;;;;;;5114908;27;20200;-81
2023/08/25 11:46:56;;;;;;;13.75;10.63;;;23.80;99.90;;;;;;5112570;27;20226;-81
2023/08/25 11:49:28;;;;;;;12.73;10.32;;;23.50;99.90;;;;;;5117110;27;21162;-80
2023/08/25 11:51:55;;;;;;;12.93;9.98;;;23.60;99.90;;;;;;5115569;27;20565;-82
2023/08/25 11:54:22;;;;;;;10.95;9.13;;;23.60;99.90;;;;;;5115766;27;20501;-80
2023/08/25 11:56:55;;;;;;;8.98;7.55;;;23.60;99.90;;;;;;5112256;27;20237;-80
2023/08/25 11:59:25;;;;;;;6.88;6.18;;;23.70;99.90;;;;;;5115540;27;20560;-80
2023/08/25 12:01:58;;;;;;;7.93;6.70;;;24.40;99.90;;;;;;5116049;27;20245;-82
2023/08/25 12:04:26;;;;;;;7.38;5.65;;;23.80;99.90;;;;;;5106440;27;20199;-81
2023/08/25 12:06:55;;;;;;;7.05;6.07;;;24.10;99.90;;;;;;5119142;27;20670;-84
2023/08/25 12:09:23;;;;;;;7.60;6.30;;;23.60;99.90;;;;;;5092306;27;20251;-81
2023/08/25 12:11:54;;;;;;;7.55;5.97;;;24.30;99.90;;;;;;5115887;27;20206;-81
2023/08/25 12:14:25;;;;;;;7.65;5.95;;;23.40;99.90;;;;;;5113273;27;20194;-82
2023/08/25 12:16:52;;;;;;;7.03;6.32;;;23.50;99.90;;;;;;5093110;27;20227;-81
2023/08/25 12:19:19;;;;;;;8.13;6.43;;;23.60;99.90;;;;;;5093009;28;20206;-83
2023/08/25 12:21:50;;;;;;;8.50;6.93;;;23.60;99.90;;;;;;5094559;28;20203;-81
2023/08/25 12:24:17;;;;;;;7.70;6.70;;;24.20;99.90;;;;;;5115504;27;20228;-84
2023/08/25 12:26:44;;;;;;;8.60;6.63;;;23.50;99.90;;;;;;5096435;27;20223;-85
2023/08/25 12:29:11;;;;;;;9.13;7.03;;;23.60;99.90;;;;;;5110894;27;20664;-81
2023/08/25 12:31:40;;;;;;;11.27;7.70;;;24.00;99.90;;;;;;5095219;28;20242;-80
2023/08/25 12:34:07;;;;;;;9.63;7.20;;;23.40;99.90;;;;;;5111894;27;20195;-82